Time;durP1;ratioP1;P1;durP2;ratioP2;P2;SDS_P1;SDS_P2;PMS_P1;PMS_P2;Temp;Humidity;BMP_temperature;BMP_pressure;BME280_temperature;BME280_humidity;BME280_pressure;Samples;Min_cycle;Max_cycle;Signal;HPM_P1;HPM_P2
2022/09/27 00:00:37;;;;;;;13.33;10.63;;;;;;;7.33;92.77;97641.02;2268806;78;21618;-80
2022/09/27 00:03:37;;;;;;;17.77;11.07;;;;;;;7.25;92.81;97639.69;2268783;78;21312;-82
2022/09/27 00:06:37;;;;;;;11.00;9.67;;;;;;;7.19;92.83;97637.48;2268630;78;20999;-81
2022/09/27 00:09:38;;;;;;;15.43;10.83;;;;;;;7.15;92.91;97638.32;2268687;78;20912;-80
2022/09/27 00:12:38;;;;;;;12.20;9.90;;;;;;;7.11;93.04;97634.84;2269004;78;20935;-81
2022/09/27 00:15:39;;;;;;;14.50;10.30;;;;;;;7.10;93.24;97629.64;2268608;78;21296;-82
2022/09/27 00:18:39;;;;;;;12.87;9.80;;;;;;;7.07;92.93;97630.92;2268453;77;20943;-81
2022/09/27 00:21:39;;;;;;;11.70;9.83;;;;;;;7.02;93.04;97627.00;2268710;78;20920;-81
2022/09/27 00:24:40;;;;;;;11.20;9.30;;;;;;;7.05;93.31;97624.86;2268396;78;20936;-80
2022/09/27 00:27:40;;;;;;;14.77;9.77;;;;;;;6.98;92.91;97627.41;2268193;78;20975;-80
2022/09/27 00:30:41;;;;;;;19.13;9.33;;;;;;;6.96;92.64;97628.26;2268424;78;20996;-81
2022/09/27 00:33:41;;;;;;;11.37;9.60;;;;;;;6.91;92.46;97628.20;2268260;78;21335;-81
2022/09/27 00:36:41;;;;;;;20.27;11.17;;;;;;;6.88;92.55;97621.69;2268584;78;20991;-81
2022/09/27 00:39:42;;;;;;;15.60;11.27;;;;;;;6.84;92.19;97617.77;2268801;78;20927;-82
2022/09/27 00:42:42;;;;;;;12.50;10.20;;;;;;;6.80;92.18;97620.77;2268902;78;20958;-81
2022/09/27 00:45:43;;;;;;;12.83;10.70;;;;;;;6.75;91.99;97622.46;2268631;78;21047;-80
2022/09/27 00:48:43;;;;;;;12.27;10.47;;;;;;;6.73;92.23;97612.93;2268845;78;20932;-81
2022/09/27 00:51:43;;;;;;;11.57;9.43;;;;;;;6.70;92.67;97609.89;2272965;78;20911;-81
2022/09/27 00:54:44;;;;;;;18.77;10.47;;;;;;;6.74;92.88;97609.05;2273388;78;20975;-81
2022/09/27 00:57:44;;;;;;;14.40;9.97;;;;;;;6.74;92.29;97603.87;2273362;78;20928;-81
2022/09/27 01:00:45;;;;;;;15.97;11.03;;;;;;;6.64;91.87;97598.17;2273421;78;20936;-80
2022/09/27 01:03:45;;;;;;;13.60;11.00;;;;;;;6.61;92.19;97600.31;2273501;78;20916;-83
2022/09/27 01:06:46;;;;;;;12.07;10.40;;;;;;;6.60;92.67;97601.60;2273111;78;20990;-83
2022/09/27 01:09:46;;;;;;;48.27;13.73;;;;;;;6.62;92.67;97599.89;2272972;78;21280;-83
2022/09/27 01:12:46;;;;;;;43.37;11.93;;;;;;;6.60;92.75;97599.01;2272712;78;20935;-82
2022/09/27 01:15:47;;;;;;;45.77;12.30;;;;;;;6.62;93.44;97589.52;2272909;78;20965;-82
2022/09/27 01:18:47;;;;;;;32.10;11.50;;;;;;;6.59;93.38;97592.95;2272968;76;20991;-81
2022/09/27 01:21:48;;;;;;;37.00;11.17;;;;;;;6.61;93.09;97594.27;2272697;78;20928;-81
2022/09/27 01:24:48;;;;;;;29.77;10.47;;;;;;;6.57;92.83;97592.08;2272830;78;20940;-81
2022/09/27 01:27:50;;;;;;;20.43;11.17;;;;;;;6.52;92.43;97579.94;2273032;78;20987;-82
2022/09/27 01:30:49;;;;;;;26.27;11.63;;;;;;;6.53;92.96;97580.38;2273133;78;21315;-82
2022/09/27 01:33:50;;;;;;;22.00;12.03;;;;;;;6.55;93.31;97569.16;2273194;78;20927;-82
2022/09/27 01:36:52;;;;;;;12.97;11.57;;;;;;;6.56;93.48;97565.70;2231962;80;20948;-83
2022/09/27 01:39:52;;;;;;;37.87;13.80;;;;;;;6.58;93.62;97557.94;2266129;78;21291;-82
2022/09/27 01:42:54;;;;;;;41.17;13.17;;;;;;;6.58;93.84;97556.22;2273468;78;20928;-82
2022/09/27 01:45:53;;;;;;;41.67;13.50;;;;;;;6.61;93.60;97547.59;2273002;78;21288;-84
2022/09/27 01:48:53;;;;;;;28.87;13.93;;;;;;;6.62;93.88;97548.90;2273512;78;20966;-81
2022/09/27 01:51:54;;;;;;;54.37;14.73;;;;;;;6.65;94.33;97554.11;2273208;78;20920;-84
2022/09/27 01:54:54;;;;;;;88.47;14.37;;;;;;;6.70;94.48;97546.36;2272878;78;20983;-82
2022/09/27 01:57:55;;;;;;;159.67;15.93;;;;;;;6.66;93.64;97536.39;2273182;78;20963;-83
2022/09/27 02:00:55;;;;;;;126.30;41.27;;;;;;;6.68;94.24;97537.70;2272980;78;20968;-81
2022/09/27 02:03:56;;;;;;;140.33;32.80;;;;;;;6.71;94.51;97530.80;2272820;78;20939;-81
2022/09/27 02:06:58;;;;;;;84.73;19.40;;;;;;;6.75;94.80;97538.17;2272766;78;20903;-83
2022/09/27 02:09:56;;;;;;;71.50;17.57;;;;;;;6.76;94.78;97532.56;2272847;78;20908;-79
2022/09/27 02:12:57;;;;;;;42.77;17.20;;;;;;;6.78;95.16;97529.11;2273195;78;21292;-83
2022/09/27 02:15:57;;;;;;;49.10;15.93;;;;;;;6.79;95.19;97525.66;2272519;78;20951;-83
2022/09/27 02:18:57;;;;;;;42.80;16.33;;;;;;;6.83;95.02;97530.44;2272828;76;20937;-82
2022/09/27 02:21:58;;;;;;;40.10;16.07;;;;;;;6.83;94.99;97524.82;2272894;78;20939;-81
2022/09/27 02:24:58;;;;;;;43.23;17.20;;;;;;;6.82;94.42;97523.09;2272717;78;20907;-81
2022/09/27 02:27:59;;;;;;;24.07;15.40;;;;;;;6.78;94.36;97520.04;2272756;78;20900;-81
2022/09/27 02:30:59;;;;;;;32.23;15.80;;;;;;;6.77;94.27;97520.89;2272887;78;20959;-81
2022/09/27 02:33:59;;;;;;;32.80;16.10;;;;;;;6.74;94.44;97514.40;2273167;78;20928;-82
2022/09/27 02:37:00;;;;;;;31.80;15.97;;;;;;;6.68;94.31;97513.06;2272979;78;20924;-83
2022/09/27 02:40:00;;;;;;;39.67;17.00;;;;;;;6.66;94.83;97510.89;2273015;78;21407;-81
2022/09/27 02:43:01;;;;;;;41.37;17.27;;;;;;;6.66;94.74;97509.59;2273948;78;20987;-81
2022/09/27 02:46:01;;;;;;;27.87;17.77;;;;;;;6.66;95.11;97511.76;2273086;78;20986;-83
2022/09/27 02:49:01;;;;;;;20.03;17.60;;;;;;;6.68;95.33;97506.58;2273034;78;20959;-83
2022/09/27 02:52:02;;;;;;;28.37;16.23;;;;;;;6.68;95.15;97501.39;2273137;78;21347;-80
2022/09/27 02:55:05;;;;;;;23.57;16.00;;;;;;;6.66;94.74;97499.22;2273211;78;21238;-83
2022/09/27 02:58:03;;;;;;;19.57;16.27;;;;;;;6.67;95.23;97498.36;2273340;78;20919;-83
2022/09/27 03:01:04;;;;;;;20.50;16.10;;;;;;;6.68;95.34;97490.59;2273195;78;20967;-83
2022/09/27 03:04:03;;;;;;;33.17;16.50;;;;;;;6.73;95.51;97492.34;2272674;78;20935;-83
2022/09/27 03:07:04;;;;;;;26.90;17.70;;;;;;;6.72;95.30;97492.77;2273168;78;21323;-84
2022/09/27 03:10:04;;;;;;;30.80;16.00;;;;;;;6.75;95.29;97494.09;2272898;78;20947;-83
2022/09/27 03:13:05;;;;;;;79.00;43.07;;;;;;;6.77;95.49;97488.48;2273044;78;20920;-81
2022/09/27 03:16:08;;;;;;;49.67;20.77;;;;;;;6.78;95.21;97485.03;2273258;78;20987;-82
2022/09/27 03:19:08;;;;;;;33.33;18.37;;;;;;;6.81;95.20;97478.98;2272823;78;21335;-82
2022/09/27 03:22:08;;;;;;;59.03;16.87;;;;;;;6.81;95.20;97478.98;2272479;78;20955;-81
2022/09/27 03:25:09;;;;;;;37.10;16.47;;;;;;;6.81;95.15;97482.45;2272637;78;20974;-81
2022/09/27 03:28:09;;;;;;;48.27;16.43;;;;;;;6.82;95.67;97481.59;2272859;78;21006;-82
2022/09/27 03:31:09;;;;;;;87.73;15.93;;;;;;;6.84;95.49;97469.49;2273037;78;20908;-82
2022/09/27 03:34:10;;;;;;;46.40;15.93;;;;;;;6.81;95.02;97467.31;2271861;78;20920;-82
2022/09/27 03:37:10;;;;;;;42.50;14.93;;;;;;;6.79;95.45;97469.03;2272124;78;20999;-84
2022/09/27 03:40:11;;;;;;;49.70;14.70;;;;;;;6.81;95.44;97460.41;2272212;78;20947;-82
2022/09/27 03:43:11;;;;;;;45.67;14.87;;;;;;;6.81;95.24;97451.33;2272186;78;20920;-82
2022/09/27 03:46:11;;;;;;;41.40;14.33;;;;;;;6.77;94.85;97448.71;2271750;78;21324;-82
2022/09/27 03:49:12;;;;;;;35.93;14.20;;;;;;;6.74;94.84;97440.92;2271605;78;20927;-84
2022/09/27 03:52:12;;;;;;;37.50;14.20;;;;;;;6.69;95.20;97443.48;2270875;78;21018;-83
2022/09/27 03:55:13;;;;;;;33.60;13.33;;;;;;;6.68;95.52;97447.81;2270278;78;20900;-82
2022/09/27 03:58:13;;;;;;;20.97;13.20;;;;;;;6.69;95.80;97447.37;2271031;78;20931;-81
2022/09/27 04:01:14;;;;;;;41.27;12.63;;;;;;;6.67;95.72;97438.73;2271083;78;20961;-82
2022/09/27 04:04:14;;;;;;;33.83;13.67;;;;;;;6.68;95.76;97432.68;2270975;78;21280;-78
2022/09/27 04:07:16;;;;;;;31.13;13.30;;;;;;;6.67;95.77;97426.63;2271877;78;20970;-83
2022/09/27 04:10:15;;;;;;;47.93;13.40;;;;;;;6.67;96.15;97424.47;2271682;78;20915;-82
2022/09/27 04:13:15;;;;;;;96.47;44.33;;;;;;;6.71;96.38;97419.30;2271774;78;21332;-82
2022/09/27 04:16:16;;;;;;;66.47;24.30;;;;;;;6.75;96.86;97425.36;2271430;78;20938;-82
2022/09/27 04:19:16;;;;;;;46.87;14.83;;;;;;;6.80;97.14;97426.25;2270584;78;20923;-82
2022/09/27 04:22:16;;;;;;;57.83;13.87;;;;;;;6.87;97.37;97421.95;2270750;78;20979;-82
2022/09/27 04:25:17;;;;;;;86.20;13.73;;;;;;;6.94;97.56;97415.53;2270692;78;20938;-83
2022/09/27 04:28:17;;;;;;;77.53;13.90;;;;;;;6.97;97.19;97406.45;2270994;78;20954;-82
2022/09/27 04:31:18;;;;;;;126.43;13.63;;;;;;;7.02;97.06;97418.14;2271029;78;20975;-81
2022/09/27 04:36:25;;;;;;;89.53;13.57;;;;;;;7.07;97.32;97420.75;2271425;78;20935;-82
2022/09/27 04:37:18;;;;;;;103.00;13.63;;;;;;;7.13;97.58;97415.58;2271579;78;21047;-83
2022/09/27 04:40:20;;;;;;;85.70;12.23;;;;;;;7.20;97.55;97408.25;2271480;78;21306;-82
2022/09/27 04:43:19;;;;;;;88.80;13.73;;;;;;;7.26;97.68;97418.64;2270613;78;20912;-83
2022/09/27 04:46:20;;;;;;;117.33;14.17;;;;;;;7.35;98.03;97426.44;2270871;78;21023;-82
2022/09/27 04:49:20;;;;;;;175.20;14.37;;;;;;;7.46;98.13;97435.11;2270502;78;21358;-82
2022/09/27 04:52:21;;;;;;;128.03;13.20;;;;;;;7.53;98.16;97435.56;2269817;78;21053;-81
2022/09/27 04:55:21;;;;;;;136.73;22.20;;;;;;;7.61;97.87;97429.07;2271210;78;20927;-82
2022/09/27 04:58:21;;;;;;;146.63;19.90;;;;;;;7.78;97.88;97429.08;2271021;78;20924;-79
2022/09/27 05:01:22;;;;;;;115.13;13.57;;;;;;;7.78;97.88;97429.08;2270985;78;21365;-81
2022/09/27 05:04:22;;;;;;;94.87;12.17;;;;;;;7.86;97.88;97431.28;2270816;78;21726;-82
2022/09/27 05:07:23;;;;;;;127.03;14.13;;;;;;;7.93;97.80;97431.71;2270804;78;20943;-81
2022/09/27 05:10:23;;;;;;;94.43;13.40;;;;;;;8.03;98.06;97436.04;2270279;78;20907;-79
2022/09/27 05:13:23;;;;;;;159.67;15.63;;;;;;;8.12;97.97;97432.56;2271854;78;21010;-81
2022/09/27 05:16:24;;;;;;;150.40;14.20;;;;;;;8.23;98.15;97429.52;2270677;78;20943;-80
2022/09/27 05:19:24;;;;;;;130.77;14.60;;;;;;;8.35;98.11;97431.27;2271358;78;20971;-81
2022/09/27 05:22:25;;;;;;;105.60;14.03;;;;;;;8.48;98.22;97429.06;2271827;78;21021;-81
2022/09/27 05:25:25;;;;;;;162.47;15.03;;;;;;;8.57;97.88;97429.91;2271647;78;20983;-81
2022/09/27 05:28:25;;;;;;;77.47;14.10;;;;;;;8.66;97.62;97432.05;2271142;78;20935;-82
2022/09/27 05:31:26;;;;;;;66.90;14.07;;;;;;;8.77;97.85;97433.78;2271010;78;21684;-80
2022/09/27 05:34:26;;;;;;;61.43;14.97;;;;;;;8.90;97.80;97439.80;2271094;78;20916;-80
2022/09/27 05:37:28;;;;;;;89.30;13.90;;;;;;;9.00;97.69;97436.29;2271141;78;20959;-80
2022/09/27 05:40:28;;;;;;;80.07;14.27;;;;;;;9.08;97.21;97433.66;2271175;78;20923;-80
2022/09/27 05:43:28;;;;;;;55.27;13.50;;;;;;;9.11;96.56;97421.92;2270619;78;20915;-80
2022/09/27 05:46:28;;;;;;;62.07;17.97;;;;;;;9.15;96.57;97417.13;2270349;78;20942;-80
2022/09/27 05:49:28;;;;;;;59.27;14.33;;;;;;;9.24;96.84;97419.69;2269784;78;20908;-80
2022/09/27 05:52:29;;;;;;;57.50;14.37;;;;;;;9.36;96.51;97420.05;2265546;78;21343;-78
2022/09/27 05:55:29;;;;;;;97.87;14.80;;;;;;;9.43;95.89;97417.39;2265162;78;20928;-81
2022/09/27 05:58:30;;;;;;;47.17;14.30;;;;;;;9.53;95.59;97415.59;2265117;78;20963;-80
2022/09/27 06:01:30;;;;;;;56.53;14.70;;;;;;;9.57;95.45;97414.30;2264958;78;20987;-82
2022/09/27 06:04:30;;;;;;;48.43;15.17;;;;;;;9.66;95.10;97412.50;2265192;78;21303;-80
2022/09/27 06:07:31;;;;;;;49.93;14.80;;;;;;;9.76;95.46;97416.33;2265781;78;20947;-81
2022/09/27 06:10:31;;;;;;;59.47;15.47;;;;;;;9.93;95.25;97419.23;2264855;78;20963;-81
2022/09/27 06:13:32;;;;;;;51.80;14.97;;;;;;;10.04;94.96;97410.44;2265578;78;20979;-81
2022/09/27 06:16:32;;;;;;;44.83;15.97;;;;;;;10.07;94.57;97403.89;2265876;78;21383;-80
2022/09/27 06:19:34;;;;;;;27.93;15.43;;;;;;;10.10;94.56;97403.00;2265107;78;21338;-82
2022/09/27 06:22:33;;;;;;;57.80;14.73;;;;;;;10.14;94.42;97409.92;2265114;78;20967;-80
2022/09/27 06:25:34;;;;;;;38.50;15.83;;;;;;;10.23;94.22;97405.95;2266387;78;20967;-82
2022/09/27 06:28:34;;;;;;;26.57;15.33;;;;;;;10.35;94.10;97412.79;2266799;78;21347;-80
2022/09/27 06:31:34;;;;;;;31.00;17.60;;;;;;;10.49;94.40;97412.23;2265684;78;20892;-80
2022/09/27 06:34:35;;;;;;;33.87;16.40;;;;;;;10.65;94.37;97424.23;2266181;78;20876;-82
2022/09/27 06:37:35;;;;;;;26.27;14.65;;;;;;;10.84;93.56;97410.09;2265733;78;21358;-80
2022/09/27 06:40:36;;;;;;;27.37;15.80;;;;;;;11.00;93.13;97402.07;2265357;78;20999;-80
2022/09/27 06:43:36;;;;;;;27.22;14.68;;;;;;;11.12;92.48;97394.08;2265653;78;20927;-78
2022/09/27 06:46:37;;;;;;;40.48;16.23;;;;;;;11.28;92.64;97401.30;2265394;78;21370;-80
2022/09/27 06:49:37;;;;;;;28.50;15.58;;;;;;;11.41;92.41;97410.69;2265416;78;20959;-81
2022/09/27 06:52:37;;;;;;;18.52;15.35;;;;;;;11.51;91.41;97411.41;2265695;78;21026;-80
2022/09/27 06:55:38;;;;;;;18.65;16.10;;;;;;;11.51;90.94;97403.13;2266158;78;20923;-79
2022/09/27 07:01:57;;;;;;;25.62;17.05;;;;;;;11.73;90.86;97408.45;2265803;78;20915;-82
2022/09/27 07:04:57;;;;;;;28.70;17.87;;;;;;;11.79;90.02;97403.16;2265414;78;20943;-81
2022/09/27 07:07:58;;;;;;;27.27;21.57;;;;;;;11.79;89.94;97406.22;2265722;78;20967;-80
2022/09/27 07:10:58;;;;;;;20.25;16.62;;;;;;;11.90;90.94;97400.81;2266536;78;20907;-80
2022/09/27 07:13:59;;;;;;;24.40;17.20;;;;;;;12.06;89.52;97401.84;2265707;78;20941;-80
2022/09/27 07:16:59;;;;;;;23.77;18.25;;;;;;;12.15;90.02;97396.07;2266625;78;20884;-82
2022/09/27 07:19:59;;;;;;;20.10;18.02;;;;;;;12.25;89.89;97397.63;2266170;78;20963;-79
2022/09/27 07:23:00;;;;;;;23.45;18.15;;;;;;;12.30;89.41;97394.04;2264958;78;21407;-80
2022/09/27 07:26:03;;;;;;;20.60;17.82;;;;;;;12.38;89.76;97396.08;2264700;78;21278;-80
2022/09/27 07:29:01;;;;;;;21.40;19.10;;;;;;;12.50;89.67;97394.13;2265628;78;20940;-79
2022/09/27 07:32:01;;;;;;;25.92;19.20;;;;;;;12.65;89.81;97402.55;2266252;78;21660;-79
2022/09/27 07:35:02;;;;;;;23.57;20.02;;;;;;;12.78;89.34;97398.38;2266020;78;20935;-80
2022/09/27 07:38:07;;;;;;;21.85;17.92;;;;;;;12.89;89.13;97402.50;2265852;78;20932;-80
2022/09/27 07:41:05;;;;;;;22.00;16.42;;;;;;;13.07;88.92;97398.67;2265398;78;21664;-81
2022/09/27 07:44:07;;;;;;;21.20;18.98;;;;;;;13.26;90.38;97400.03;2265068;78;20982;-79
2022/09/27 07:47:06;;;;;;;19.60;17.37;;;;;;;14.39;89.92;97389.47;2264966;78;21006;-78
2022/09/27 07:50:06;;;;;;;27.37;19.87;;;;;;;14.44;86.23;97388.06;2266099;78;20982;-77
2022/09/27 07:53:11;;;;;;;23.73;18.40;;;;;;;14.39;84.95;97392.55;2268611;78;21726;-79
2022/09/27 07:56:07;;;;;;;20.05;18.00;;;;;;;14.39;85.13;97398.66;2268547;78;21345;-78
2022/09/27 07:59:07;;;;;;;26.73;16.45;;;;;;;14.43;84.32;97396.39;2269508;78;20964;-77
2022/09/27 08:02:08;;;;;;;49.27;16.65;;;;;;;14.48;83.91;97391.02;2269535;78;21714;-78
2022/09/27 08:05:08;;;;;;;22.73;17.45;;;;;;;14.69;83.95;97394.83;2268876;78;20911;-77
2022/09/27 08:08:09;;;;;;;16.70;15.10;;;;;;;14.89;84.06;97384.66;2269094;78;21406;-78
2022/09/27 08:11:11;;;;;;;17.82;15.55;;;;;;;15.06;82.38;97389.42;2269462;78;20903;-77
2022/09/27 08:14:10;;;;;;;18.12;16.02;;;;;;;15.13;81.60;97386.58;2269365;78;20943;-76
2022/09/27 08:17:10;;;;;;;17.07;15.28;;;;;;;15.10;81.57;97380.09;2269846;78;20915;-78
2022/09/27 08:20:11;;;;;;;19.07;16.10;;;;;;;15.14;81.10;97374.30;2269886;78;21444;-79
2022/09/27 08:23:11;;;;;;;15.18;13.68;;;;;;;15.25;81.07;97380.95;2269975;78;21027;-77
2022/09/27 08:26:11;;;;;;;16.32;14.68;;;;;;;15.43;80.71;97377.36;2269383;78;20963;-77
2022/09/27 08:29:12;;;;;;;15.50;14.00;;;;;;;15.58;80.57;97388.30;2268564;78;20931;-78
2022/09/27 08:32:12;;;;;;;16.67;14.95;;;;;;;15.59;79.20;97383.44;2268319;78;21649;-78
2022/09/27 08:35:14;;;;;;;16.80;15.13;;;;;;;15.55;79.12;97384.86;2268954;78;20951;-79
2022/09/27 08:38:13;;;;;;;18.48;16.30;;;;;;;15.49;78.59;97381.97;2268544;78;20919;-77
2022/09/27 08:41:14;;;;;;;15.48;13.88;;;;;;;15.46;78.98;97371.55;2269809;78;20923;-77
2022/09/27 08:44:14;;;;;;;17.77;15.40;;;;;;;15.52;78.91;97371.81;2269420;78;21387;-77
2022/09/27 08:47:14;;;;;;;17.17;15.38;;;;;;;15.45;78.35;97363.25;2269435;78;20981;-77
2022/09/27 08:50:14;;;;;;;15.90;14.30;;;;;;;15.48;79.27;97357.04;2268764;78;20916;-78
2022/09/27 08:53:15;;;;;;;16.45;14.78;;;;;;;15.62;79.17;97360.16;2269096;78;20947;-77
2022/09/27 08:56:20;;;;;;;18.60;14.47;;;;;;;15.55;78.60;97362.52;2269685;78;20914;-77
2022/09/27 08:59:20;;;;;;;58.90;18.00;;;;;;;15.56;78.65;97362.92;2269976;78;20919;-78
2022/09/27 09:02:16;;;;;;;15.68;14.05;;;;;;;15.63;79.44;97364.52;2270672;78;20916;-77
2022/09/27 09:05:17;;;;;;;15.78;14.28;;;;;;;15.73;78.73;97364.63;2269771;78;20947;-77
2022/09/27 09:08:17;;;;;;;16.20;14.60;;;;;;;15.87;79.11;97356.28;2269609;78;20981;-78
2022/09/27 09:14:36;;;;;;;29.55;25.37;;;;;;;15.84;77.69;97355.06;2270463;78;20916;-77
2022/09/27 09:17:36;;;;;;;19.12;15.05;;;;;;;15.84;77.14;97350.66;2269730;78;20944;-79
2022/09/27 09:20:40;;;;;;;14.25;12.93;;;;;;;15.83;77.86;97346.77;2269956;78;21621;-78
2022/09/27 09:23:40;;;;;;;44.17;14.43;;;;;;;16.00;78.26;97337.00;2271234;78;20974;-77
2022/09/27 09:26:40;;;;;;;12.80;11.50;;;;;;;16.22;78.32;97331.41;2269996;78;21408;-78
2022/09/27 09:29:41;;;;;;;12.23;11.12;;;;;;;16.48;77.65;97333.16;2269684;78;20923;-80
2022/09/27 09:32:43;;;;;;;13.18;11.85;;;;;;;16.66;76.96;97330.34;2270567;78;20927;-78
2022/09/27 09:35:42;;;;;;;15.83;11.90;;;;;;;16.87;76.75;97337.00;2269366;78;20887;-76
2022/09/27 09:38:42;;;;;;;13.45;12.05;;;;;;;17.01;76.03;97332.99;2269657;78;21343;-77
2022/09/27 09:41:43;;;;;;;13.70;12.37;;;;;;;17.20;75.79;97321.69;2269269;78;20919;-78
2022/09/27 09:44:44;;;;;;;16.82;14.00;;;;;;;17.33;74.16;97323.84;2269789;78;20924;-78
2022/09/27 09:47:43;;;;;;;12.78;11.55;;;;;;;17.33;73.64;97308.02;2269358;78;20983;-78
2022/09/27 09:50:45;;;;;;;13.38;11.97;;;;;;;17.38;73.33;97303.00;2241458;78;21961;-78
2022/09/27 09:53:46;;;;;;;11.80;10.63;;;;;;;17.46;72.99;97298.73;2265138;78;21414;-77
2022/09/27 09:56:46;;;;;;;16.12;11.08;;;;;;;17.33;73.24;97294.38;2266008;78;20908;-78
2022/09/27 09:59:46;;;;;;;11.57;10.58;;;;;;;17.42;73.70;97297.14;2266097;78;20970;-79
2022/09/27 10:02:46;;;;;;;29.37;13.60;;;;;;;17.42;72.04;97293.18;2266244;78;20975;-80
2022/09/27 10:05:47;;;;;;;44.15;14.50;;;;;;;17.28;72.24;97296.80;2266314;78;21359;-81
2022/09/27 10:08:48;;;;;;;11.60;10.60;;;;;;;17.30;72.96;97289.69;2265536;78;20951;-80
2022/09/27 10:11:48;;;;;;;12.58;10.50;;;;;;;17.37;72.32;97285.91;2265951;78;20924;-80
2022/09/27 10:14:48;;;;;;;11.83;10.72;;;;;;;17.42;73.14;97283.48;2264935;78;20927;-79
2022/09/27 10:17:52;;;;;;;12.58;11.35;;;;;;;17.47;72.51;97277.57;2265884;78;21348;-80
2022/09/27 10:20:52;;;;;;;12.33;11.03;;;;;;;17.53;72.51;97273.82;2265640;78;21287;-80
2022/09/27 10:23:52;;;;;;;14.00;9.90;;;;;;;17.56;73.18;97271.06;2266565;78;21010;-81
2022/09/27 10:26:52;;;;;;;10.72;9.63;;;;;;;17.63;72.37;97270.34;2266249;78;20975;-77
2022/09/27 10:29:53;;;;;;;11.48;10.48;;;;;;;17.64;72.02;97271.61;2265769;78;20963;-79
2022/09/27 10:32:55;;;;;;;53.42;14.53;;;;;;;17.54;71.56;97264.98;2265398;78;20916;-79
2022/09/27 10:35:54;;;;;;;16.82;11.63;;;;;;;17.56;72.56;97257.87;2266085;78;21327;-78
2022/09/27 10:38:54;;;;;;;33.15;18.82;;;;;;;17.58;71.76;97255.17;2265852;78;21042;-77
2022/09/27 10:41:54;;;;;;;14.78;12.68;;;;;;;17.59;71.47;97248.97;2265701;78;20928;-78
2022/09/27 10:44:55;;;;;;;16.95;12.30;;;;;;;17.61;70.97;97248.45;2265622;78;21351;-79
2022/09/27 10:47:55;;;;;;;21.33;12.93;;;;;;;17.43;70.31;97250.92;2266107;78;21030;-78
2022/09/27 10:50:56;;;;;;;13.40;12.20;;;;;;;17.30;70.73;97243.53;2266610;78;20908;-79
2022/09/27 10:54:00;;;;;;;12.07;10.98;;;;;;;17.34;71.35;97242.06;2266167;78;20983;-78
2022/09/27 10:56:59;;;;;;;16.97;11.45;;;;;;;17.37;70.76;97232.70;2266777;78;20907;-77
2022/09/27 11:00:00;;;;;;;11.28;10.28;;;;;;;17.40;71.15;97231.72;2267015;78;20920;-78
2022/09/27 11:03:00;;;;;;;15.75;11.40;;;;;;;17.50;70.75;97223.83;2266243;78;20959;-77
2022/09/27 11:06:01;;;;;;;12.05;10.85;;;;;;;17.60;70.59;97219.88;2267031;78;20935;-77
2022/09/27 11:09:02;;;;;;;11.35;10.15;;;;;;;17.63;69.17;97214.48;2266021;78;20986;-78
2022/09/27 11:12:02;;;;;;;26.68;22.32;;;;;;;17.67;70.03;97215.23;2266043;78;21323;-77
2022/09/27 11:15:02;;;;;;;15.10;12.80;;;;;;;17.73;69.71;97206.60;2265932;78;21522;-77
2022/09/27 11:18:02;;;;;;;14.58;12.00;;;;;;;17.81;69.62;97204.49;2266116;78;20899;-78
2022/09/27 11:21:03;;;;;;;15.55;10.78;;;;;;;17.83;69.49;97205.28;2266289;78;20979;-77
2022/09/27 11:24:03;;;;;;;10.25;8.90;;;;;;;17.79;69.20;97203.70;2265384;78;20982;-79
2022/09/27 11:27:04;;;;;;;8.98;8.10;;;;;;;17.85;68.92;97201.72;2265442;78;21003;-79
2022/09/27 11:30:04;;;;;;;10.18;9.18;;;;;;;17.90;68.83;97192.67;2264547;78;20951;-79
2022/09/27 11:33:05;;;;;;;12.43;10.10;;;;;;;18.10;67.61;97191.80;2265050;78;20927;-77
2022/09/27 11:36:05;;;;;;;19.48;10.60;;;;;;;18.14;66.55;97188.10;2264934;78;21323;-78
2022/09/27 11:39:05;;;;;;;11.08;9.90;;;;;;;18.20;65.63;97185.19;2265422;78;20934;-78
2022/09/27 11:42:06;;;;;;;9.58;8.53;;;;;;;18.25;66.09;97182.37;2265350;78;20935;-79
2022/09/27 11:45:09;;;;;;;9.75;8.85;;;;;;;18.27;65.55;97180.52;2265612;78;21263;-78
2022/09/27 11:48:07;;;;;;;11.75;8.63;;;;;;;18.15;66.00;97180.11;2265246;78;20943;-78
2022/09/27 11:51:07;;;;;;;16.70;8.50;;;;;;;18.15;65.79;97175.30;2264872;78;21006;-80
2022/09/27 11:54:07;;;;;;;13.83;8.90;;;;;;;18.18;67.49;97177.80;2264630;78;21054;-80
2022/09/27 11:57:08;;;;;;;10.63;8.75;;;;;;;18.32;67.14;97171.45;2265517;78;20943;-81
2022/09/27 12:00:09;;;;;;;10.60;9.60;;;;;;;18.32;66.64;97171.45;2264772;78;21925;-79
2022/09/27 12:03:09;;;;;;;12.82;10.40;;;;;;;18.33;66.53;97165.25;2264461;78;20900;-79
2022/09/27 12:06:09;;;;;;;9.13;8.23;;;;;;;18.30;66.05;97164.53;2264155;78;20908;-80
2022/09/27 12:09:09;;;;;;;12.07;7.95;;;;;;;18.30;65.67;97169.34;2264275;78;21352;-80
2022/09/27 12:12:10;;;;;;;8.08;7.35;;;;;;;18.26;65.50;97161.17;2263093;78;20920;-80
2022/09/27 12:15:19;;;;;;;13.95;8.28;;;;;;;18.24;65.14;97152.46;2264004;78;20971;-80
2022/09/27 12:18:19;;;;;;;8.58;7.67;;;;;;;18.16;64.97;97159.84;2264280;78;20979;-79
2022/09/27 12:21:20;;;;;;;17.17;8.15;;;;;;;18.12;65.04;97149.02;2264568;78;20944;-80
2022/09/27 12:24:20;;;;;;;8.38;7.42;;;;;;;18.14;65.94;97145.84;2263156;78;21446;-79
2022/09/27 12:27:21;;;;;;;8.83;7.25;;;;;;;18.32;65.44;97149.00;2263987;78;20940;-79
2022/09/27 12:30:21;;;;;;;9.23;7.78;;;;;;;18.44;65.44;97144.48;2264388;78;20920;-80
2022/09/27 12:33:22;;;;;;;8.55;7.10;;;;;;;18.65;64.98;97145.29;2264183;78;20927;-78
2022/09/27 12:36:22;;;;;;;9.23;8.33;;;;;;;18.68;65.14;97149.11;2264008;78;20892;-78
2022/09/27 12:39:22;;;;;;;16.60;7.95;;;;;;;18.57;64.79;97134.66;2263963;78;21336;-78
2022/09/27 12:42:23;;;;;;;9.03;6.92;;;;;;;18.54;65.02;97134.34;2264088;78;20923;-80
2022/09/27 12:45:23;;;;;;;9.53;7.78;;;;;;;18.65;65.11;97129.44;2264954;78;20959;-79
2022/09/27 12:48:24;;;;;;;11.70;8.53;;;;;;;18.76;64.62;97135.53;2264699;78;20975;-79
2022/09/27 12:51:24;;;;;;;11.00;9.90;;;;;;;18.67;64.62;97130.22;2265137;78;20907;-77
2022/09/27 12:54:24;;;;;;;10.78;9.55;;;;;;;18.71;64.26;97132.25;2268796;78;21702;-78
2022/09/27 12:57:25;;;;;;;9.18;8.28;;;;;;;18.86;63.95;97128.87;2270205;78;20958;-81
2022/09/27 13:00:25;;;;;;;9.40;8.60;;;;;;;19.00;63.86;97127.73;2270248;78;20954;-80
2022/09/27 13:03:26;;;;;;;9.90;9.00;;;;;;;19.11;62.87;97122.41;2270111;78;20978;-80
2022/09/27 13:06:26;;;;;;;16.25;8.98;;;;;;;19.08;62.83;97125.59;2270252;78;20966;-77
2022/09/27 13:09:27;;;;;;;9.80;8.90;;;;;;;19.04;63.01;97113.42;2269190;78;20924;-80
2022/09/27 13:12:28;;;;;;;9.85;8.73;;;;;;;18.95;62.83;97112.55;2269287;78;21366;-80
2022/09/27 13:15:27;;;;;;;9.15;8.25;;;;;;;18.88;63.96;97104.53;2269384;78;20991;-81
2022/09/27 13:18:28;;;;;;;12.03;9.80;;;;;;;18.78;64.05;97105.91;2270031;78;20982;-80
2022/09/27 13:21:28;;;;;;;10.48;9.28;;;;;;;18.77;63.45;97098.91;2270021;78;21647;-81
2022/09/27 13:24:29;;;;;;;10.65;9.60;;;;;;;18.66;63.82;97095.94;2270063;78;21010;-81
2022/09/27 13:27:29;;;;;;;10.98;9.88;;;;;;;18.54;64.58;97089.42;2269538;78;20959;-82
2022/09/27 13:30:30;;;;;;;11.00;9.75;;;;;;;18.46;64.79;97094.21;2268812;78;20955;-80
2022/09/27 13:33:33;;;;;;;13.75;10.55;;;;;;;18.50;65.22;97089.17;2268524;78;20959;-82
2022/09/27 13:36:33;;;;;;;24.67;10.88;;;;;;;18.32;64.32;97089.58;2269856;78;20993;-83
2022/09/27 13:39:34;;;;;;;10.85;9.35;;;;;;;18.23;65.53;97086.51;2269214;78;20915;-83
2022/09/27 13:42:34;;;;;;;31.40;24.90;;;;;;;18.15;65.56;97082.87;2269187;78;20924;-81
2022/09/27 13:45:35;;;;;;;17.90;11.20;;;;;;;18.06;65.72;97091.22;2269233;78;20947;-79
2022/09/27 13:48:35;;;;;;;16.32;10.88;;;;;;;17.95;65.97;97089.06;2270338;78;20994;-82
2022/09/27 13:51:36;;;;;;;11.03;9.93;;;;;;;17.93;65.91;97088.74;2270473;78;21419;-81
2022/09/27 13:54:37;;;;;;;14.95;9.48;;;;;;;17.76;66.12;97083.76;2269800;78;21462;-80
2022/09/27 13:57:36;;;;;;;57.38;13.98;;;;;;;17.71;66.72;97080.93;2270186;78;20919;-80
2022/09/27 14:00:37;;;;;;;10.70;9.68;;;;;;;17.69;67.30;97078.36;2269791;78;20926;-81